Symmetry — ZCNV8 — position and weather

sailwx.info

Track history (hours):
 
Tides and Currents Weather Stations Pressure Air Temp Water Temp Dewpoint Dewpoint Depression Visibility Wind Speed Wind Dir Waves Ship Positions

Symmetry

Last reported at 2017-Nov-17 19:02 UTC. Time now 2017-Nov-25 01:52 UTC.
Position N 25°36' W 079°54'.

Length 25 m; draft 3.2 m.

Type: Sailing vessel. MMSI: 319247000.

Date/timePositionNaut miles runAvg speedWind from/ knotsBaromVisibWave heightAir tempDewpointWater temp
2017-Nov-17 19:02N 25°36' W 079°54'1 7.9
2017-Nov-17 18:55N 25°37' W 079°54'4 7.5
2017-Nov-17 18:26N 25°40' W 079°56'4 8.6
2017-Nov-17 18:00N 25°44' W 079°58'5 8.8
2017-Nov-17 17:29N 25°48' W 079°59'4 7.7
2017-Nov-17 17:00N 25°52' W 080°00'4 7.2
2017-Nov-17 16:30N 25°55' W 080°01'4 8.6
2017-Nov-17 16:00N 25°59' W 080°03'510.5
2017-Nov-17 15:30N 26°04' W 080°05'3 1.9
2017-Nov-17 13:54N 26°06' W 080°07'0 0.0
2017-Nov-17 13:12N 26°06' W 080°07'0 0.0
2017-Nov-17 12:51N 26°06' W 080°07'0 0.0
2017-Nov-17 12:12N 26°06' W 080°07'0 0.0
2017-Nov-17 11:57N 26°06' W 080°07'0 0.0
2017-Nov-17 11:12N 26°06' W 080°07'0 0.0
2017-Nov-17 10:54N 26°06' W 080°07'0 0.0
2017-Nov-17 10:27N 26°06' W 080°07'0 0.0
2017-Nov-17 10:00N 26°06' W 080°07'0 0.0
2017-Nov-17 09:27N 26°06' W 080°07'0 0.0
2017-Nov-17 09:00N 26°06' W 080°07'0 0.0
2017-Nov-17 08:30N 26°06' W 080°07'0 0.0
2017-Nov-17 08:00N 26°06' W 080°07'0 0.0
2017-Nov-17 07:30N 26°06' W 080°07'0 0.0
2017-Nov-17 07:00N 26°06' W 080°07'0 0.0
2017-Nov-17 06:30N 26°06' W 080°07'0 0.0
2017-Nov-17 06:00N 26°06' W 080°07'0 0.0
2017-Nov-17 05:30N 26°06' W 080°07'0 0.0
2017-Nov-17 05:00N 26°06' W 080°07'0 0.0
2017-Nov-17 04:30N 26°06' W 080°07'0 0.0
2017-Nov-17 04:00N 26°06' W 080°07'0 0.0
2017-Nov-17 03:30N 26°06' W 080°07'0 0.0
2017-Nov-17 02:51N 26°06' W 080°07'0 0.0
2017-Nov-17 02:21N 26°06' W 080°07'0 0.0
2017-Nov-17 01:51N 26°06' W 080°07'0 0.0
2017-Nov-17 01:21N 26°06' W 080°07'0 0.0
2017-Nov-17 00:54N 26°06' W 080°07'0 0.0
2017-Nov-16 23:24N 26°06' W 080°07'0 0.0
2017-Nov-16 22:57N 26°06' W 080°08'0 0.0
2017-Nov-16 20:09N 26°06' W 080°07'0 0.0
2017-Nov-16 20:00N 26°06' W 080°07'0 0.0
2017-Nov-16 18:57N 26°06' W 080°07'0 0.0
2017-Nov-16 18:30N 26°06' W 080°07'0 0.0
2017-Nov-16 17:27N 26°06' W 080°07'0 0.0
2017-Nov-16 16:57N 26°06' W 080°07'0 0.0
2017-Nov-16 15:33N 26°06' W 080°07'0 0.0
2017-Nov-16 15:18N 26°06' W 080°07'0 0.0
2017-Nov-16 15:00N 26°06' W 080°07'0 0.0
2017-Nov-16 14:06N 26°06' W 080°07'0 0.0
2017-Nov-16 13:48N 26°06' W 080°07'0 0.0
2017-Nov-16 12:33N 26°06' W 080°07'0 0.0
2017-Nov-16 12:21N 26°06' W 080°07'0 0.0
2017-Nov-16 11:51N 26°06' W 080°07'0 0.0
2017-Nov-16 11:21N 26°06' W 080°07'0 0.0
2017-Nov-16 10:39N 26°06' W 080°07'0 0.0
2017-Nov-16 09:39N 26°06' W 080°07'0 0.0
2017-Nov-16 09:09N 26°06' W 080°07'0 0.0
2017-Nov-16 08:57N 26°06' W 080°07'0 0.0
2017-Nov-16 08:27N 26°06' W 080°07'0 0.0
2017-Nov-16 07:57N 26°06' W 080°07'0 0.0
2017-Nov-16 07:27N 26°06' W 080°07'0 0.0
2017-Nov-16 06:57N 26°06' W 080°07'0 0.0
2017-Nov-16 06:27N 26°06' W 080°07'0 0.0
2017-Nov-16 06:00N 26°06' W 080°07'0 0.0
2017-Nov-16 05:30N 26°06' W 080°07'0 0.0
2017-Nov-16 05:00N 26°06' W 080°07'0 0.0
2017-Nov-16 04:30N 26°06' W 080°07'0 0.0
2017-Nov-16 04:00N 26°06' W 080°07'0 0.0
2017-Nov-16 03:27N 26°06' W 080°07'0 0.0
2017-Nov-16 03:00N 26°06' W 080°07'0 0.0
2017-Nov-16 02:18N 26°06' W 080°07'0 0.0
2017-Nov-16 02:00N 26°06' W 080°07'0 0.0
2017-Nov-16 01:30N 26°06' W 080°07'0 0.0
2017-Nov-15 22:36N 26°06' W 080°07'0 0.0
2017-Nov-15 21:48N 26°06' W 080°07'0 0.0
2017-Nov-15 21:21N 26°06' W 080°07'0 0.0
2017-Nov-15 19:36N 26°06' W 080°07'0 0.0
2017-Nov-15 19:24N 26°06' W 080°07'0 0.0
2017-Nov-15 18:54N 26°06' W 080°07'0 0.0
2017-Nov-15 18:27N 26°06' W 080°07'0 0.0
2017-Nov-15 17:42N 26°06' W 080°07'0 0.0
2017-Nov-15 17:24N 26°06' W 080°07'0 0.0
2017-Nov-15 16:24N 26°06' W 080°07'0 0.0
2017-Nov-15 13:45N 26°06' W 080°07'0 0.0
2017-Nov-15 13:30N 26°06' W 080°07'0 0.0
2017-Nov-15 12:57N 26°06' W 080°07'0 0.0
2017-Nov-15 11:48N 26°06' W 080°07'0 0.0
2017-Nov-15 11:30N 26°06' W 080°07'0 0.0
2017-Nov-15 11:00N 26°06' W 080°07'0 0.0
2017-Nov-15 09:48N 26°06' W 080°07'0 0.0
2017-Nov-15 09:21N 26°06' W 080°07'0 0.0
2017-Nov-15 08:51N 26°06' W 080°07'0 0.0
2017-Nov-15 08:21N 26°06' W 080°07'0 0.0
2017-Nov-15 07:54N 26°06' W 080°07'0 0.0
2017-Nov-15 07:24N 26°06' W 080°07'0 0.0
2017-Nov-15 04:39N 26°06' W 080°07'0 0.0
2017-Nov-15 04:27N 26°06' W 080°07'0 0.0
2017-Nov-15 03:57N 26°06' W 080°07'0 0.0
2017-Nov-15 03:27N 26°06' W 080°07'0 0.0
2017-Nov-15 02:57N 26°06' W 080°07'0 0.0
2017-Nov-15 02:30N 26°06' W 080°07'0 0.0
2017-Nov-15 02:00N 26°06' W 080°07'0 0.0
2017-Nov-15 01:30N 26°06' W 080°07'0 0.0
2017-Nov-15 01:00N 26°06' W 080°07'0 0.0
2017-Nov-15 00:00N 26°06' W 080°07'0 0.0
2017-Nov-14 23:30N 26°06' W 080°07'0 0.0
2017-Nov-14 23:00N 26°06' W 080°07'0 0.0
2017-Nov-14 22:30N 26°06' W 080°07'0 0.0
2017-Nov-14 22:00N 26°06' W 080°07'0 0.0
2017-Nov-14 21:18N 26°06' W 080°07'0 0.0
2017-Nov-14 20:06N 26°06' W 080°07'0 0.0
2017-Nov-14 19:36N 26°06' W 080°07'0 0.0
2017-Nov-14 19:21N 26°06' W 080°07'0 0.0
2017-Nov-14 18:54N 26°06' W 080°07'0 0.0
2017-Nov-14 18:24N 26°06' W 080°07'0 0.0
2017-Nov-14 17:51N 26°06' W 080°07'0 0.0
2017-Nov-14 15:36N 26°06' W 080°07'0 0.0
2017-Nov-14 15:24N 26°06' W 080°07'0 0.0
2017-Nov-14 14:57N 26°06' W 080°07'0 0.0
2017-Nov-14 14:27N 26°06' W 080°07'0 0.0
2017-Nov-14 13:57N 26°06' W 080°07'0 0.0
2017-Nov-14 13:27N 26°06' W 080°07'0 0.0
2017-Nov-14 12:57N 26°06' W 080°07'0 0.0
2017-Nov-14 12:30N 26°06' W 080°07'0 0.0
2017-Nov-14 12:00N 26°06' W 080°07'0 0.0
2017-Nov-14 11:30N 26°06' W 080°07'0 0.0
2017-Nov-14 11:00N 26°06' W 080°07'0 0.0
2017-Nov-14 10:30N 26°06' W 080°07'0 0.0
2017-Nov-14 09:45N 26°06' W 080°07'0 0.0
2017-Nov-14 09:30N 26°06' W 080°07'0 0.0
2017-Nov-14 09:00N 26°06' W 080°07'0 0.0
2017-Nov-14 08:30N 26°06' W 080°07'0 0.0
2017-Nov-14 08:00N 26°06' W 080°07'0 0.0
2017-Nov-14 07:30N 26°06' W 080°07'0 0.0
2017-Nov-14 07:00N 26°06' W 080°07'0 0.0
2017-Nov-14 06:30N 26°06' W 080°07'0 0.0
2017-Nov-14 06:00N 26°06' W 080°07'0 0.0
2017-Nov-14 05:21N 26°06' W 080°07'0 0.0
2017-Nov-14 04:51N 26°06' W 080°07'0 0.0
2017-Nov-14 04:24N 26°06' W 080°07'0 0.0
2017-Nov-14 03:54N 26°06' W 080°07'0 0.0
2017-Nov-14 03:21N 26°06' W 080°07'0 0.0
2017-Nov-14 02:54N 26°06' W 080°07'0 0.0
2017-Nov-14 02:24N 26°06' W 080°07'0 0.0
2017-Nov-14 01:54N 26°06' W 080°07'0 0.0
2017-Nov-14 01:24N 26°06' W 080°07'0 0.0
2017-Nov-14 00:57N 26°06' W 080°07'0 0.0
2017-Nov-14 00:27N 26°06' W 080°07'0 0.0
2017-Nov-13 23:57N 26°06' W 080°07'0 0.0
2017-Nov-13 23:24N 26°06' W 080°07'0 0.0
2017-Nov-13 22:57N 26°06' W 080°07'0 0.0
2017-Nov-13 22:30N 26°06' W 080°07'0 0.0
2017-Nov-13 22:00N 26°06' W 080°07'0 0.0
2017-Nov-13 01:51N 26°06' W 080°07'0 0.0
2017-Nov-13 01:21N 26°06' W 080°07'0 0.0
2017-Nov-13 00:51N 26°06' W 080°07'0 0.0
2017-Nov-13 00:24N 26°06' W 080°07'0 0.0
2017-Nov-12 23:54N 26°06' W 080°07'0 0.0
2017-Nov-12 23:24N 26°06' W 080°07'0 0.0
2017-Nov-12 22:54N 26°06' W 080°07'0 0.0
2017-Nov-12 22:24N 26°06' W 080°07'0 0.0
2017-Nov-12 21:57N 26°06' W 080°07'0 0.0
2017-Nov-12 21:24N 26°06' W 080°07'0 0.0
2017-Nov-12 20:57N 26°06' W 080°07'0 0.0
2017-Nov-12 20:27N 26°06' W 080°07'0 0.0
2017-Nov-12 19:57N 26°06' W 080°07'0 0.0
2017-Nov-12 19:27N 26°06' W 080°07'0 0.0
2017-Nov-12 18:45N 26°06' W 080°07'0 0.0
2017-Nov-12 18:24N 26°06' W 080°07'0 0.0
2017-Nov-12 18:00N 26°06' W 080°07'0 0.0
2017-Nov-12 17:30N 26°06' W 080°07'0 0.0
2017-Nov-12 17:00N 26°06' W 080°07'0 0.0
2017-Nov-12 16:30N 26°06' W 080°07'0 0.0
2017-Nov-12 16:00N 26°06' W 080°07'0 0.0
2017-Nov-12 15:30N 26°06' W 080°07'0 0.0
2017-Nov-12 15:00N 26°06' W 080°07'0 0.0
2017-Nov-12 14:30N 26°06' W 080°07'0 0.0
2017-Nov-12 14:00N 26°06' W 080°07'0 0.0
2017-Nov-12 13:18N 26°06' W 080°07'0 0.0
2017-Nov-12 13:00N 26°06' W 080°07'0 0.0
2017-Nov-12 12:30N 26°06' W 080°07'0 0.0
2017-Nov-12 11:51N 26°06' W 080°07'0 0.0
2017-Nov-12 11:21N 26°06' W 080°07'0 0.0
2017-Nov-12 10:51N 26°06' W 080°07'0 0.0
2017-Nov-12 10:24N 26°06' W 080°07'0 0.0
2017-Nov-12 09:54N 26°06' W 080°07'0 0.0
2017-Nov-12 09:24N 26°06' W 080°07'0 0.0
2017-Nov-12 08:54N 26°06' W 080°07'0 0.0
2017-Nov-12 08:27N 26°06' W 080°07'0 0.0
2017-Nov-12 07:54N 26°06' W 080°07'0 0.0
2017-Nov-12 07:27N 26°06' W 080°07'0 0.0
2017-Nov-12 06:57N 26°06' W 080°07'0 0.0
2017-Nov-12 06:27N 26°06' W 080°07'0 0.0
2017-Nov-12 05:57N 26°06' W 080°07'0 0.0
2017-Nov-12 05:27N 26°06' W 080°07'0 0.0
2017-Nov-12 05:00N 26°06' W 080°07'0 0.0
2017-Nov-12 04:30N 26°06' W 080°07'0 0.0
2017-Nov-12 04:00N 26°06' W 080°07'0 0.0
2017-Nov-12 03:30N 26°06' W 080°07'0 0.0
2017-Nov-12 03:00N 26°06' W 080°07'0 0.0
2017-Nov-12 02:30N 26°06' W 080°07'0 0.0
2017-Nov-12 02:00N 26°06' W 080°07'0 0.0
2017-Nov-12 01:30N 26°06' W 080°07'0 0.0
2017-Nov-12 00:57N 26°06' W 080°07'0 0.0
2017-Nov-12 00:18N 26°06' W 080°07'0 0.0
2017-Nov-12 00:00N 26°06' W 080°07'0 0.0
2017-Nov-11 23:30N 26°06' W 080°07'0 0.0
2017-Nov-11 23:00N 26°06' W 080°07'0 0.0
2017-Nov-11 22:30N 26°06' W 080°07'0 0.0
2017-Nov-11 21:51N 26°06' W 080°07'0 0.0
2017-Nov-11 21:21N 26°06' W 080°07'0 0.0
2017-Nov-11 20:48N 26°06' W 080°07'0 0.0
2017-Nov-11 20:24N 26°06' W 080°07'0 0.0
2017-Nov-11 19:54N 26°06' W 080°07'0 0.0
2017-Nov-11 19:24N 26°06' W 080°07'0 0.0
2017-Nov-11 18:54N 26°06' W 080°07'0 0.0
2017-Nov-11 18:24N 26°06' W 080°07'0 0.0
2017-Nov-11 17:57N 26°06' W 080°07'0 0.0
2017-Nov-11 17:27N 26°06' W 080°07'0 0.0
2017-Nov-11 16:54N 26°06' W 080°07'0 0.8
2017-Nov-11 16:24N 26°06' W 080°07'0 0.9
2017-Nov-11 15:57N 26°06' W 080°07'0 0.0
2017-Nov-11 15:24N 26°06' W 080°07'0 0.0
2017-Nov-11 15:00N 26°06' W 080°07'0 0.0
2017-Nov-11 14:30N 26°06' W 080°07'0 0.0
2017-Nov-11 14:00N 26°06' W 080°07'0 0.0
2017-Nov-11 13:30N 26°06' W 080°07'0 0.0
2017-Nov-11 12:57N 26°06' W 080°07'0 0.0
2017-Nov-11 12:30N 26°06' W 080°07'0 0.0
2017-Nov-11 12:00N 26°06' W 080°07'0 0.0
2017-Nov-11 11:30N 26°06' W 080°07'0 0.0
2017-Nov-11 11:00N 26°06' W 080°07'0 0.0
2017-Nov-11 10:30N 26°06' W 080°07'2 3.0
2017-Nov-11 10:00N 26°05' W 080°07'2 3.0
2017-Nov-11 09:30N 26°06' W 080°07'0 0.0
2017-Nov-11 09:00N 26°06' W 080°07'0 0.0
2017-Nov-11 08:30N 26°06' W 080°07'0 0.0
2017-Nov-11 07:51N 26°06' W 080°07'0 0.0
2017-Nov-11 07:24N 26°06' W 080°07'0 0.0
2017-Nov-11 06:51N 26°06' W 080°07'0 0.0
2017-Nov-11 06:24N 26°06' W 080°07'0 0.0
2017-Nov-11 05:54N 26°06' W 080°07'0 0.0
2017-Nov-11 05:24N 26°06' W 080°07'0 0.0
2017-Nov-11 04:54N 26°06' W 080°07'0 0.0
2017-Nov-11 04:24N 26°06' W 080°07'0 0.0
2017-Nov-11 03:54N 26°06' W 080°07'0 0.0
2017-Nov-11 03:27N 26°06' W 080°07'0 0.0
2017-Nov-11 02:57N 26°06' W 080°07'0 0.0
2017-Nov-11 02:27N 26°06' W 080°07'0 0.0
2017-Nov-11 01:57N 26°06' W 080°07'0 0.0
2017-Nov-11 01:24N 26°06' W 080°07'0 0.0
2017-Nov-11 01:00N 26°06' W 080°07'0 0.0
2017-Nov-11 00:30N 26°06' W 080°07'0 0.0
2017-Nov-11 00:00N 26°06' W 080°07'0 0.0
2017-Nov-10 23:15N 26°06' W 080°07'0 0.0
2017-Nov-10 23:00N 26°06' W 080°07'0 0.0
2017-Nov-10 22:30N 26°06' W 080°07'0 0.0
2017-Nov-10 22:00N 26°06' W 080°07'0 0.0
2017-Nov-10 21:18N 26°06' W 080°07'0 0.0
2017-Nov-10 21:00N 26°06' W 080°07'0 0.0
2017-Nov-10 20:30N 26°06' W 080°07'0 0.0
2017-Nov-10 20:00N 26°06' W 080°07'0 0.0
2017-Nov-10 19:30N 26°06' W 080°07'0 0.0
2017-Nov-10 19:00N 26°06' W 080°07'0 0.0
2017-Nov-10 18:30N 26°06' W 080°07'0 0.0
2017-Nov-10 17:57N 26°06' W 080°07'0 0.0
2017-Nov-10 17:30N 26°06' W 080°07'0 0.0
2017-Nov-10 17:00N 26°06' W 080°07'0 0.0
2017-Nov-10 16:30N 26°06' W 080°07'0 0.0
2017-Nov-10 16:00N 26°06' W 080°07'0 0.0
2017-Nov-10 15:30N 26°06' W 080°07'0 0.0
2017-Nov-10 15:00N 26°06' W 080°07'0 0.0
2017-Nov-10 14:30N 26°06' W 080°07'0 0.0
2017-Nov-10 14:00N 26°06' W 080°07'0 0.0
2017-Nov-10 13:30N 26°06' W 080°07'0 0.0
2017-Nov-10 13:00N 26°06' W 080°07'0 0.0
2017-Nov-10 12:30N 26°06' W 080°07'0 0.0
2017-Nov-10 11:57N 26°06' W 080°07'0 0.0
2017-Nov-10 11:30N 26°06' W 080°07'0 0.0
2017-Nov-10 11:00N 26°06' W 080°07'0 0.0
2017-Nov-10 10:30N 26°06' W 080°07'0 0.0
2017-Nov-10 10:00N 26°06' W 080°07'0 0.0
2017-Nov-10 09:30N 26°06' W 080°07'0 0.0
2017-Nov-10 09:00N 26°06' W 080°07'0 0.0
2017-Nov-10 08:30N 26°06' W 080°07'0 0.0
2017-Nov-10 08:00N 26°06' W 080°07'0 0.0
2017-Nov-10 07:30N 26°06' W 080°07'0 0.0
2017-Nov-10 07:00N 26°06' W 080°07'0 0.0
2017-Nov-10 06:30N 26°06' W 080°07'0 0.0
2017-Nov-10 06:00N 26°06' W 080°07'0 0.0
2017-Nov-10 05:30N 26°06' W 080°07'0 0.0
2017-Nov-10 05:00N 26°06' W 080°07'0 0.0
2017-Nov-10 04:30N 26°06' W 080°07'0 0.0
2017-Nov-10 04:00N 26°06' W 080°07'0 0.0
2017-Nov-10 03:30N 26°06' W 080°07'0 0.0
2017-Nov-10 02:57N 26°06' W 080°07'0 0.0
2017-Nov-10 02:30N 26°06' W 080°07'0 0.0
2017-Nov-10 02:00N 26°06' W 080°07'0 0.0
2017-Nov-10 01:30N 26°06' W 080°07'0 0.0
2017-Nov-10 00:51N 26°06' W 080°07'0 0.0
2017-Nov-10 00:30N 26°06' W 080°07'0 0.0
2017-Nov-09 23:57N 26°06' W 080°07'0 0.0
2017-Nov-09 23:30N 26°06' W 080°07'0 0.0
2017-Nov-09 23:00N 26°06' W 080°07'0 0.0
2017-Nov-09 22:30N 26°06' W 080°07'0 0.0
2017-Nov-09 21:57N 26°06' W 080°07'0 0.0
2017-Nov-09 21:30N 26°06' W 080°07'0 0.0
2017-Nov-09 21:00N 26°06' W 080°07'0 0.0
2017-Nov-09 20:30N 26°06' W 080°07'0 0.0
2017-Nov-09 20:00N 26°06' W 080°07'0 0.0
2017-Nov-09 19:27N 26°06' W 080°07'0 0.0
2017-Nov-09 19:00N 26°06' W 080°07'0 0.0
2017-Nov-09 18:30N 26°06' W 080°07'0 0.0
2017-Nov-09 18:00N 26°06' W 080°07'0 0.0
2017-Nov-09 17:30N 26°06' W 080°07'0 0.0
2017-Nov-09 17:00N 26°06' W 080°07'0 0.0
2017-Nov-09 16:30N 26°06' W 080°07'0 0.0
2017-Nov-09 16:00N 26°06' W 080°07'0 0.0
2017-Nov-09 15:30N 26°06' W 080°07'0 0.0
2017-Nov-09 14:51N 26°06' W 080°07'0 0.0
2017-Nov-09 14:21N 26°06' W 080°07'0 0.0
2017-Nov-09 13:51N 26°06' W 080°07'0 0.0
2017-Nov-09 13:21N 26°06' W 080°07'0 0.0
2017-Nov-09 12:51N 26°06' W 080°07'0 0.0
2017-Nov-09 12:27N 26°06' W 080°07'0 0.0
2017-Nov-09 11:57N 26°06' W 080°07'0 0.0
2017-Nov-09 11:27N 26°06' W 080°07'0 0.0
2017-Nov-09 10:57N 26°06' W 080°07'0 0.0
2017-Nov-09 10:27N 26°06' W 080°07'0 0.0
2017-Nov-09 09:57N 26°06' W 080°07'0 0.0
2017-Nov-09 09:27N 26°06' W 080°07'0 0.0
2017-Nov-09 08:57N 26°06' W 080°07'0 0.0
2017-Nov-09 08:30N 26°06' W 080°07'0 0.0
2017-Nov-09 08:00N 26°06' W 080°07'0 0.0
2017-Nov-09 07:30N 26°06' W 080°07'0 0.0
2017-Nov-09 07:00N 26°06' W 080°07'0 0.0
2017-Nov-09 06:30N 26°06' W 080°07'0 0.0
2017-Nov-09 06:00N 26°06' W 080°07'0 0.0
2017-Nov-09 05:30N 26°06' W 080°07'0 0.0
2017-Nov-09 05:00N 26°06' W 080°07'0 0.0
2017-Nov-09 04:30N 26°06' W 080°07'0 0.0
2017-Nov-09 03:57N 26°06' W 080°07'0 0.0
2017-Nov-09 03:30N 26°06' W 080°07'0 0.0
2017-Nov-09 03:00N 26°06' W 080°07'0 0.0
2017-Nov-09 02:30N 26°06' W 080°07'0 0.0
2017-Nov-09 02:00N 26°06' W 080°07'0 0.0
2017-Nov-09 01:30N 26°06' W 080°07'0 0.0
2017-Nov-09 01:00N 26°06' W 080°07'0 0.0
2017-Nov-09 00:30N 26°06' W 080°07'0 0.0
2017-Nov-08 23:57N 26°06' W 080°07'0 0.0
2017-Nov-08 23:27N 26°06' W 080°07'0 0.0
2017-Nov-08 22:51N 26°06' W 080°07'0 0.0
2017-Nov-08 22:24N 26°06' W 080°07'0 0.0
2017-Nov-08 21:57N 26°06' W 080°07'0 0.0
2017-Nov-08 21:27N 26°06' W 080°07'0 0.0
2017-Nov-08 20:54N 26°06' W 080°07'0 0.0
2017-Nov-08 20:24N 26°06' W 080°07'0 0.0
2017-Nov-08 19:57N 26°06' W 080°07'0 0.0
2017-Nov-08 19:27N 26°06' W 080°07'0 0.0
2017-Nov-08 18:57N 26°06' W 080°07'0 0.0
2017-Nov-08 18:27N 26°06' W 080°07'0 0.0
2017-Nov-08 17:57N 26°06' W 080°07'0 0.0
2017-Nov-08 17:30N 26°06' W 080°07'0 0.0
2017-Nov-08 17:00N 26°06' W 080°07'0 0.0
2017-Nov-08 16:30N 26°06' W 080°07'0 0.0
2017-Nov-08 16:00N 26°06' W 080°07'0 0.0
2017-Nov-08 15:30N 26°06' W 080°07'0 0.0
2017-Nov-08 15:00N 26°06' W 080°07'0 0.0
2017-Nov-08 14:30N 26°06' W 080°07'0 0.0
2017-Nov-08 14:00N 26°06' W 080°07'0 0.0
2017-Nov-08 13:30N 26°06' W 080°07'0 0.0
2017-Nov-08 13:00N 26°06' W 080°07'0 0.0
2017-Nov-08 12:30N 26°06' W 080°07'0 0.0
2017-Nov-08 12:00N 26°06' W 080°07'0 0.0
2017-Nov-08 11:27N 26°06' W 080°07'0 0.0
2017-Nov-08 11:00N 26°06' W 080°07'0 0.0
2017-Nov-08 10:27N 26°06' W 080°07'0 0.0
2017-Nov-08 09:57N 26°06' W 080°07'0 0.0
2017-Nov-08 09:27N 26°06' W 080°07'0 0.0
2017-Nov-08 08:57N 26°06' W 080°07'0 0.0
2017-Nov-08 08:27N 26°06' W 080°07'0 0.0
2017-Nov-08 07:57N 26°06' W 080°07'0 0.0
2017-Nov-08 07:24N 26°06' W 080°07'0 0.0
2017-Nov-08 06:54N 26°06' W 080°07'0 0.0
2017-Nov-08 06:27N 26°06' W 080°07'0 0.0
2017-Nov-08 05:57N 26°06' W 080°07'0 0.0
2017-Nov-08 05:27N 26°06' W 080°07'0 0.0
2017-Nov-08 04:57N 26°06' W 080°07'0 0.0
2017-Nov-08 04:24N 26°06' W 080°07'0 0.0
2017-Nov-08 04:00N 26°06' W 080°07'0 0.0
2017-Nov-08 03:27N 26°06' W 080°07'0 0.0
2017-Nov-08 03:00N 26°06' W 080°07'0 0.0
2017-Nov-08 02:30N 26°06' W 080°07'0 0.0
2017-Nov-08 02:00N 26°06' W 080°07'0 0.0
2017-Nov-08 01:27N 26°06' W 080°07'0 0.0
2017-Nov-08 01:00N 26°06' W 080°07'0 0.0
2017-Nov-08 00:30N 26°06' W 080°07'0 0.0
2017-Nov-07 23:57N 26°06' W 080°07'0 0.0
2017-Nov-07 23:30N 26°06' W 080°07'0 0.0
2017-Nov-07 23:00N 26°06' W 080°07'0 0.0
2017-Nov-07 22:18N 26°06' W 080°07'0 0.0
2017-Nov-07 22:00N 26°06' W 080°07'0 0.0
2017-Nov-07 21:30N 26°06' W 080°07'0 0.0
2017-Nov-07 21:00N 26°06' W 080°07'0 0.0
2017-Nov-07 20:27N 26°06' W 080°07'0 0.0
2017-Nov-07 19:39N 26°06' W 080°07'0 0.0
2017-Nov-07 19:03N 26°06' W 080°07'  
Track history (hours):
 
Tides and Currents Weather Stations Pressure Air Temp Water Temp Dewpoint Dewpoint Depression Visibility Wind Speed Wind Dir Waves Ship Positions

Symmetry

Last reported at 2017-Nov-17 19:02 UTC. Time now 2017-Nov-25 01:52 UTC.
Position N 25°36' W 079°54'.

Length 25 m; draft 3.2 m.

Type: Sailing vessel. MMSI: 319247000.

Date/timePositionNaut miles runAvg speedWind from/ knotsBaromVisibWave heightAir tempDewpointWater temp
2017-Nov-17 19:02N 25°36' W 079°54'1 7.9
2017-Nov-17 18:55N 25°37' W 079°54'4 7.5
2017-Nov-17 18:26N 25°40' W 079°56'4 8.6
2017-Nov-17 18:00N 25°44' W 079°58'5 8.8
2017-Nov-17 17:29N 25°48' W 079°59'4 7.7
2017-Nov-17 17:00N 25°52' W 080°00'4 7.2
2017-Nov-17 16:30N 25°55' W 080°01'4 8.6
2017-Nov-17 16:00N 25°59' W 080°03'510.5
2017-Nov-17 15:30N 26°04' W 080°05'3 1.9
2017-Nov-17 13:54N 26°06' W 080°07'0 0.0
2017-Nov-17 13:12N 26°06' W 080°07'0 0.0
2017-Nov-17 12:51N 26°06' W 080°07'0 0.0
2017-Nov-17 12:12N 26°06' W 080°07'0 0.0
2017-Nov-17 11:57N 26°06' W 080°07'0 0.0
2017-Nov-17 11:12N 26°06' W 080°07'0 0.0
2017-Nov-17 10:54N 26°06' W 080°07'0 0.0
2017-Nov-17 10:27N 26°06' W 080°07'0 0.0
2017-Nov-17 10:00N 26°06' W 080°07'0 0.0
2017-Nov-17 09:27N 26°06' W 080°07'0 0.0
2017-Nov-17 09:00N 26°06' W 080°07'0 0.0
2017-Nov-17 08:30N 26°06' W 080°07'0 0.0
2017-Nov-17 08:00N 26°06' W 080°07'0 0.0
2017-Nov-17 07:30N 26°06' W 080°07'0 0.0
2017-Nov-17 07:00N 26°06' W 080°07'0 0.0
2017-Nov-17 06:30N 26°06' W 080°07'0 0.0
2017-Nov-17 06:00N 26°06' W 080°07'0 0.0
2017-Nov-17 05:30N 26°06' W 080°07'0 0.0
2017-Nov-17 05:00N 26°06' W 080°07'0 0.0
2017-Nov-17 04:30N 26°06' W 080°07'0 0.0
2017-Nov-17 04:00N 26°06' W 080°07'0 0.0
2017-Nov-17 03:30N 26°06' W 080°07'0 0.0
2017-Nov-17 02:51N 26°06' W 080°07'0 0.0
2017-Nov-17 02:21N 26°06' W 080°07'0 0.0
2017-Nov-17 01:51N 26°06' W 080°07'0 0.0
2017-Nov-17 01:21N 26°06' W 080°07'0 0.0
2017-Nov-17 00:54N 26°06' W 080°07'0 0.0
2017-Nov-16 23:24N 26°06' W 080°07'0 0.0
2017-Nov-16 22:57N 26°06' W 080°08'0 0.0
2017-Nov-16 20:09N 26°06' W 080°07'0 0.0
2017-Nov-16 20:00N 26°06' W 080°07'0 0.0
2017-Nov-16 18:57N 26°06' W 080°07'0 0.0
2017-Nov-16 18:30N 26°06' W 080°07'0 0.0
2017-Nov-16 17:27N 26°06' W 080°07'0 0.0
2017-Nov-16 16:57N 26°06' W 080°07'0 0.0
2017-Nov-16 15:33N 26°06' W 080°07'0 0.0
2017-Nov-16 15:18N 26°06' W 080°07'0 0.0
2017-Nov-16 15:00N 26°06' W 080°07'0 0.0
2017-Nov-16 14:06N 26°06' W 080°07'0 0.0
2017-Nov-16 13:48N 26°06' W 080°07'0 0.0
2017-Nov-16 12:33N 26°06' W 080°07'0 0.0
2017-Nov-16 12:21N 26°06' W 080°07'0 0.0
2017-Nov-16 11:51N 26°06' W 080°07'0 0.0
2017-Nov-16 11:21N 26°06' W 080°07'0 0.0
2017-Nov-16 10:39N 26°06' W 080°07'0 0.0
2017-Nov-16 09:39N 26°06' W 080°07'0 0.0
2017-Nov-16 09:09N 26°06' W 080°07'0 0.0
2017-Nov-16 08:57N 26°06' W 080°07'0 0.0
2017-Nov-16 08:27N 26°06' W 080°07'0 0.0
2017-Nov-16 07:57N 26°06' W 080°07'0 0.0
2017-Nov-16 07:27N 26°06' W 080°07'0 0.0
2017-Nov-16 06:57N 26°06' W 080°07'0 0.0
2017-Nov-16 06:27N 26°06' W 080°07'0 0.0
2017-Nov-16 06:00N 26°06' W 080°07'0 0.0
2017-Nov-16 05:30N 26°06' W 080°07'0 0.0
2017-Nov-16 05:00N 26°06' W 080°07'0 0.0
2017-Nov-16 04:30N 26°06' W 080°07'0 0.0
2017-Nov-16 04:00N 26°06' W 080°07'0 0.0
2017-Nov-16 03:27N 26°06' W 080°07'0 0.0
2017-Nov-16 03:00N 26°06' W 080°07'0 0.0
2017-Nov-16 02:18N 26°06' W 080°07'0 0.0
2017-Nov-16 02:00N 26°06' W 080°07'0 0.0
2017-Nov-16 01:30N 26°06' W 080°07'0 0.0
2017-Nov-15 22:36N 26°06' W 080°07'0 0.0
2017-Nov-15 21:48N 26°06' W 080°07'0 0.0
2017-Nov-15 21:21N 26°06' W 080°07'0 0.0
2017-Nov-15 19:36N 26°06' W 080°07'0 0.0
2017-Nov-15 19:24N 26°06' W 080°07'0 0.0
2017-Nov-15 18:54N 26°06' W 080°07'0 0.0
2017-Nov-15 18:27N 26°06' W 080°07'0 0.0
2017-Nov-15 17:42N 26°06' W 080°07'0 0.0
2017-Nov-15 17:24N 26°06' W 080°07'0 0.0
2017-Nov-15 16:24N 26°06' W 080°07'0 0.0
2017-Nov-15 13:45N 26°06' W 080°07'0 0.0
2017-Nov-15 13:30N 26°06' W 080°07'0 0.0
2017-Nov-15 12:57N 26°06' W 080°07'0 0.0
2017-Nov-15 11:48N 26°06' W 080°07'0 0.0
2017-Nov-15 11:30N 26°06' W 080°07'0 0.0
2017-Nov-15 11:00N 26°06' W 080°07'0 0.0
2017-Nov-15 09:48N 26°06' W 080°07'0 0.0
2017-Nov-15 09:21N 26°06' W 080°07'0 0.0
2017-Nov-15 08:51N 26°06' W 080°07'0 0.0
2017-Nov-15 08:21N 26°06' W 080°07'0 0.0
2017-Nov-15 07:54N 26°06' W 080°07'0 0.0
2017-Nov-15 07:24N 26°06' W 080°07'0 0.0
2017-Nov-15 04:39N 26°06' W 080°07'0 0.0
2017-Nov-15 04:27N 26°06' W 080°07'0 0.0
2017-Nov-15 03:57N 26°06' W 080°07'0 0.0
2017-Nov-15 03:27N 26°06' W 080°07'0 0.0
2017-Nov-15 02:57N 26°06' W 080°07'0 0.0
2017-Nov-15 02:30N 26°06' W 080°07'0 0.0
2017-Nov-15 02:00N 26°06' W 080°07'0 0.0
2017-Nov-15 01:30N 26°06' W 080°07'0 0.0
2017-Nov-15 01:00N 26°06' W 080°07'0 0.0
2017-Nov-15 00:00N 26°06' W 080°07'0 0.0
2017-Nov-14 23:30N 26°06' W 080°07'0 0.0
2017-Nov-14 23:00N 26°06' W 080°07'0 0.0
2017-Nov-14 22:30N 26°06' W 080°07'0 0.0
2017-Nov-14 22:00N 26°06' W 080°07'0 0.0
2017-Nov-14 21:18N 26°06' W 080°07'0 0.0
2017-Nov-14 20:06N 26°06' W 080°07'0 0.0
2017-Nov-14 19:36N 26°06' W 080°07'0 0.0
2017-Nov-14 19:21N 26°06' W 080°07'0 0.0
2017-Nov-14 18:54N 26°06' W 080°07'0 0.0
2017-Nov-14 18:24N 26°06' W 080°07'0 0.0
2017-Nov-14 17:51N 26°06' W 080°07'0 0.0
2017-Nov-14 15:36N 26°06' W 080°07'0 0.0
2017-Nov-14 15:24N 26°06' W 080°07'0 0.0
2017-Nov-14 14:57N 26°06' W 080°07'0 0.0
2017-Nov-14 14:27N 26°06' W 080°07'0 0.0
2017-Nov-14 13:57N 26°06' W 080°07'0 0.0
2017-Nov-14 13:27N 26°06' W 080°07'0 0.0
2017-Nov-14 12:57N 26°06' W 080°07'0 0.0
2017-Nov-14 12:30N 26°06' W 080°07'0 0.0
2017-Nov-14 12:00N 26°06' W 080°07'0 0.0
2017-Nov-14 11:30N 26°06' W 080°07'0 0.0
2017-Nov-14 11:00N 26°06' W 080°07'0 0.0
2017-Nov-14 10:30N 26°06' W 080°07'0 0.0
2017-Nov-14 09:45N 26°06' W 080°07'0 0.0
2017-Nov-14 09:30N 26°06' W 080°07'0 0.0
2017-Nov-14 09:00N 26°06' W 080°07'0 0.0
2017-Nov-14 08:30N 26°06' W 080°07'0 0.0
2017-Nov-14 08:00N 26°06' W 080°07'0 0.0
2017-Nov-14 07:30N 26°06' W 080°07'0 0.0
2017-Nov-14 07:00N 26°06' W 080°07'0 0.0
2017-Nov-14 06:30N 26°06' W 080°07'0 0.0
2017-Nov-14 06:00N 26°06' W 080°07'0 0.0
2017-Nov-14 05:21N 26°06' W 080°07'0 0.0
2017-Nov-14 04:51N 26°06' W 080°07'0 0.0
2017-Nov-14 04:24N 26°06' W 080°07'0 0.0
2017-Nov-14 03:54N 26°06' W 080°07'0 0.0
2017-Nov-14 03:21N 26°06' W 080°07'0 0.0
2017-Nov-14 02:54N 26°06' W 080°07'0 0.0
2017-Nov-14 02:24N 26°06' W 080°07'0 0.0
2017-Nov-14 01:54N 26°06' W 080°07'0 0.0
2017-Nov-14 01:24N 26°06' W 080°07'0 0.0
2017-Nov-14 00:57N 26°06' W 080°07'0 0.0
2017-Nov-14 00:27N 26°06' W 080°07'0 0.0
2017-Nov-13 23:57N 26°06' W 080°07'0 0.0
2017-Nov-13 23:24N 26°06' W 080°07'0 0.0
2017-Nov-13 22:57N 26°06' W 080°07'0 0.0
2017-Nov-13 22:30N 26°06' W 080°07'0 0.0
2017-Nov-13 22:00N 26°06' W 080°07'0 0.0
2017-Nov-13 01:51N 26°06' W 080°07'0 0.0
2017-Nov-13 01:21N 26°06' W 080°07'0 0.0
2017-Nov-13 00:51N 26°06' W 080°07'0 0.0
2017-Nov-13 00:24N 26°06' W 080°07'0 0.0
2017-Nov-12 23:54N 26°06' W 080°07'0 0.0
2017-Nov-12 23:24N 26°06' W 080°07'0 0.0
2017-Nov-12 22:54N 26°06' W 080°07'0 0.0
2017-Nov-12 22:24N 26°06' W 080°07'0 0.0
2017-Nov-12 21:57N 26°06' W 080°07'0 0.0
2017-Nov-12 21:24N 26°06' W 080°07'0 0.0
2017-Nov-12 20:57N 26°06' W 080°07'0 0.0
2017-Nov-12 20:27N 26°06' W 080°07'0 0.0
2017-Nov-12 19:57N 26°06' W 080°07'0 0.0
2017-Nov-12 19:27N 26°06' W 080°07'0 0.0
2017-Nov-12 18:45N 26°06' W 080°07'0 0.0
2017-Nov-12 18:24N 26°06' W 080°07'0 0.0
2017-Nov-12 18:00N 26°06' W 080°07'0 0.0
2017-Nov-12 17:30N 26°06' W 080°07'0 0.0
2017-Nov-12 17:00N 26°06' W 080°07'0 0.0
2017-Nov-12 16:30N 26°06' W 080°07'0 0.0
2017-Nov-12 16:00N 26°06' W 080°07'0 0.0
2017-Nov-12 15:30N 26°06' W 080°07'0 0.0
2017-Nov-12 15:00N 26°06' W 080°07'0 0.0
2017-Nov-12 14:30N 26°06' W 080°07'0 0.0
2017-Nov-12 14:00N 26°06' W 080°07'0 0.0
2017-Nov-12 13:18N 26°06' W 080°07'0 0.0
2017-Nov-12 13:00N 26°06' W 080°07'0 0.0
2017-Nov-12 12:30N 26°06' W 080°07'0 0.0
2017-Nov-12 11:51N 26°06' W 080°07'0 0.0
2017-Nov-12 11:21N 26°06' W 080°07'0 0.0
2017-Nov-12 10:51N 26°06' W 080°07'0 0.0
2017-Nov-12 10:24N 26°06' W 080°07'0 0.0
2017-Nov-12 09:54N 26°06' W 080°07'0 0.0
2017-Nov-12 09:24N 26°06' W 080°07'0 0.0
2017-Nov-12 08:54N 26°06' W 080°07'0 0.0
2017-Nov-12 08:27N 26°06' W 080°07'0 0.0
2017-Nov-12 07:54N 26°06' W 080°07'0 0.0
2017-Nov-12 07:27N 26°06' W 080°07'0 0.0
2017-Nov-12 06:57N 26°06' W 080°07'0 0.0
2017-Nov-12 06:27N 26°06' W 080°07'0 0.0
2017-Nov-12 05:57N 26°06' W 080°07'0 0.0
2017-Nov-12 05:27N 26°06' W 080°07'0 0.0
2017-Nov-12 05:00N 26°06' W 080°07'0 0.0
2017-Nov-12 04:30N 26°06' W 080°07'0 0.0
2017-Nov-12 04:00N 26°06' W 080°07'0 0.0
2017-Nov-12 03:30N 26°06' W 080°07'0 0.0
2017-Nov-12 03:00N 26°06' W 080°07'0 0.0
2017-Nov-12 02:30N 26°06' W 080°07'0 0.0
2017-Nov-12 02:00N 26°06' W 080°07'0 0.0
2017-Nov-12 01:30N 26°06' W 080°07'0 0.0
2017-Nov-12 00:57N 26°06' W 080°07'0 0.0
2017-Nov-12 00:18N 26°06' W 080°07'0 0.0
2017-Nov-12 00:00N 26°06' W 080°07'0 0.0
2017-Nov-11 23:30N 26°06' W 080°07'0 0.0
2017-Nov-11 23:00N 26°06' W 080°07'0 0.0
2017-Nov-11 22:30N 26°06' W 080°07'0 0.0
2017-Nov-11 21:51N 26°06' W 080°07'0 0.0
2017-Nov-11 21:21N 26°06' W 080°07'0 0.0
2017-Nov-11 20:48N 26°06' W 080°07'0 0.0
2017-Nov-11 20:24N 26°06' W 080°07'0 0.0
2017-Nov-11 19:54N 26°06' W 080°07'0 0.0
2017-Nov-11 19:24N 26°06' W 080°07'0 0.0
2017-Nov-11 18:54N 26°06' W 080°07'0 0.0
2017-Nov-11 18:24N 26°06' W 080°07'0 0.0
2017-Nov-11 17:57N 26°06' W 080°07'0 0.0
2017-Nov-11 17:27N 26°06' W 080°07'0 0.0
2017-Nov-11 16:54N 26°06' W 080°07'0 0.8
2017-Nov-11 16:24N 26°06' W 080°07'0 0.9
2017-Nov-11 15:57N 26°06' W 080°07'0 0.0
2017-Nov-11 15:24N 26°06' W 080°07'0 0.0
2017-Nov-11 15:00N 26°06' W 080°07'0 0.0
2017-Nov-11 14:30N 26°06' W 080°07'0 0.0
2017-Nov-11 14:00N 26°06' W 080°07'0 0.0
2017-Nov-11 13:30N 26°06' W 080°07'0 0.0
2017-Nov-11 12:57N 26°06' W 080°07'0 0.0
2017-Nov-11 12:30N 26°06' W 080°07'0 0.0
2017-Nov-11 12:00N 26°06' W 080°07'0 0.0
2017-Nov-11 11:30N 26°06' W 080°07'0 0.0
2017-Nov-11 11:00N 26°06' W 080°07'0 0.0
2017-Nov-11 10:30N 26°06' W 080°07'2 3.0
2017-Nov-11 10:00N 26°05' W 080°07'2 3.0
2017-Nov-11 09:30N 26°06' W 080°07'0 0.0
2017-Nov-11 09:00N 26°06' W 080°07'0 0.0
2017-Nov-11 08:30N 26°06' W 080°07'0 0.0
2017-Nov-11 07:51N 26°06' W 080°07'0 0.0
2017-Nov-11 07:24N 26°06' W 080°07'0 0.0
2017-Nov-11 06:51N 26°06' W 080°07'0 0.0
2017-Nov-11 06:24N 26°06' W 080°07'0 0.0
2017-Nov-11 05:54N 26°06' W 080°07'0 0.0
2017-Nov-11 05:24N 26°06' W 080°07'0 0.0
2017-Nov-11 04:54N 26°06' W 080°07'0 0.0
2017-Nov-11 04:24N 26°06' W 080°07'0 0.0
2017-Nov-11 03:54N 26°06' W 080°07'0 0.0
2017-Nov-11 03:27N 26°06' W 080°07'0 0.0
2017-Nov-11 02:57N 26°06' W 080°07'0 0.0
2017-Nov-11 02:27N 26°06' W 080°07'0 0.0
2017-Nov-11 01:57N 26°06' W 080°07'0 0.0
2017-Nov-11 01:24N 26°06' W 080°07'0 0.0
2017-Nov-11 01:00N 26°06' W 080°07'0 0.0
2017-Nov-11 00:30N 26°06' W 080°07'0 0.0
2017-Nov-11 00:00N 26°06' W 080°07'0 0.0
2017-Nov-10 23:15N 26°06' W 080°07'0 0.0
2017-Nov-10 23:00N 26°06' W 080°07'0 0.0
2017-Nov-10 22:30N 26°06' W 080°07'0 0.0
2017-Nov-10 22:00N 26°06' W 080°07'0 0.0
2017-Nov-10 21:18N 26°06' W 080°07'0 0.0
2017-Nov-10 21:00N 26°06' W 080°07'0 0.0
2017-Nov-10 20:30N 26°06' W 080°07'0 0.0
2017-Nov-10 20:00N 26°06' W 080°07'0 0.0
2017-Nov-10 19:30N 26°06' W 080°07'0 0.0
2017-Nov-10 19:00N 26°06' W 080°07'0 0.0
2017-Nov-10 18:30N 26°06' W 080°07'0 0.0
2017-Nov-10 17:57N 26°06' W 080°07'0 0.0
2017-Nov-10 17:30N 26°06' W 080°07'0 0.0
2017-Nov-10 17:00N 26°06' W 080°07'0 0.0
2017-Nov-10 16:30N 26°06' W 080°07'0 0.0
2017-Nov-10 16:00N 26°06' W 080°07'0 0.0
2017-Nov-10 15:30N 26°06' W 080°07'0 0.0
2017-Nov-10 15:00N 26°06' W 080°07'0 0.0
2017-Nov-10 14:30N 26°06' W 080°07'0 0.0
2017-Nov-10 14:00N 26°06' W 080°07'0 0.0
2017-Nov-10 13:30N 26°06' W 080°07'0 0.0
2017-Nov-10 13:00N 26°06' W 080°07'0 0.0
2017-Nov-10 12:30N 26°06' W 080°07'0 0.0
2017-Nov-10 11:57N 26°06' W 080°07'0 0.0
2017-Nov-10 11:30N 26°06' W 080°07'0 0.0
2017-Nov-10 11:00N 26°06' W 080°07'0 0.0
2017-Nov-10 10:30N 26°06' W 080°07'0 0.0
2017-Nov-10 10:00N 26°06' W 080°07'0 0.0
2017-Nov-10 09:30N 26°06' W 080°07'0 0.0
2017-Nov-10 09:00N 26°06' W 080°07'0 0.0
2017-Nov-10 08:30N 26°06' W 080°07'0 0.0
2017-Nov-10 08:00N 26°06' W 080°07'0 0.0
2017-Nov-10 07:30N 26°06' W 080°07'0 0.0
2017-Nov-10 07:00N 26°06' W 080°07'0 0.0
2017-Nov-10 06:30N 26°06' W 080°07'0 0.0
2017-Nov-10 06:00N 26°06' W 080°07'0 0.0
2017-Nov-10 05:30N 26°06' W 080°07'0 0.0
2017-Nov-10 05:00N 26°06' W 080°07'0 0.0
2017-Nov-10 04:30N 26°06' W 080°07'0 0.0
2017-Nov-10 04:00N 26°06' W 080°07'0 0.0
2017-Nov-10 03:30N 26°06' W 080°07'0 0.0
2017-Nov-10 02:57N 26°06' W 080°07'0 0.0
2017-Nov-10 02:30N 26°06' W 080°07'0 0.0
2017-Nov-10 02:00N 26°06' W 080°07'0 0.0
2017-Nov-10 01:30N 26°06' W 080°07'0 0.0
2017-Nov-10 00:51N 26°06' W 080°07'0 0.0
2017-Nov-10 00:30N 26°06' W 080°07'0 0.0
2017-Nov-09 23:57N 26°06' W 080°07'0 0.0
2017-Nov-09 23:30N 26°06' W 080°07'0 0.0
2017-Nov-09 23:00N 26°06' W 080°07'0 0.0
2017-Nov-09 22:30N 26°06' W 080°07'0 0.0
2017-Nov-09 21:57N 26°06' W 080°07'0 0.0
2017-Nov-09 21:30N 26°06' W 080°07'0 0.0
2017-Nov-09 21:00N 26°06' W 080°07'0 0.0
2017-Nov-09 20:30N 26°06' W 080°07'0 0.0
2017-Nov-09 20:00N 26°06' W 080°07'0 0.0
2017-Nov-09 19:27N 26°06' W 080°07'0 0.0
2017-Nov-09 19:00N 26°06' W 080°07'0 0.0
2017-Nov-09 18:30N 26°06' W 080°07'0 0.0
2017-Nov-09 18:00N 26°06' W 080°07'0 0.0
2017-Nov-09 17:30N 26°06' W 080°07'0 0.0
2017-Nov-09 17:00N 26°06' W 080°07'0 0.0
2017-Nov-09 16:30N 26°06' W 080°07'0 0.0
2017-Nov-09 16:00N 26°06' W 080°07'0 0.0
2017-Nov-09 15:30N 26°06' W 080°07'0 0.0
2017-Nov-09 14:51N 26°06' W 080°07'0 0.0
2017-Nov-09 14:21N 26°06' W 080°07'0 0.0
2017-Nov-09 13:51N 26°06' W 080°07'0 0.0
2017-Nov-09 13:21N 26°06' W 080°07'0 0.0
2017-Nov-09 12:51N 26°06' W 080°07'0 0.0
2017-Nov-09 12:27N 26°06' W 080°07'0 0.0
2017-Nov-09 11:57N 26°06' W 080°07'0 0.0
2017-Nov-09 11:27N 26°06' W 080°07'0 0.0
2017-Nov-09 10:57N 26°06' W 080°07'0 0.0
2017-Nov-09 10:27N 26°06' W 080°07'0 0.0
2017-Nov-09 09:57N 26°06' W 080°07'0 0.0
2017-Nov-09 09:27N 26°06' W 080°07'0 0.0
2017-Nov-09 08:57N 26°06' W 080°07'0 0.0
2017-Nov-09 08:30N 26°06' W 080°07'0 0.0
2017-Nov-09 08:00N 26°06' W 080°07'0 0.0
2017-Nov-09 07:30N 26°06' W 080°07'0 0.0
2017-Nov-09 07:00N 26°06' W 080°07'0 0.0
2017-Nov-09 06:30N 26°06' W 080°07'0 0.0
2017-Nov-09 06:00N 26°06' W 080°07'0 0.0
2017-Nov-09 05:30N 26°06' W 080°07'0 0.0
2017-Nov-09 05:00N 26°06' W 080°07'0 0.0
2017-Nov-09 04:30N 26°06' W 080°07'0 0.0
2017-Nov-09 03:57N 26°06' W 080°07'0 0.0
2017-Nov-09 03:30N 26°06' W 080°07'0 0.0
2017-Nov-09 03:00N 26°06' W 080°07'0 0.0
2017-Nov-09 02:30N 26°06' W 080°07'0 0.0
2017-Nov-09 02:00N 26°06' W 080°07'0 0.0
2017-Nov-09 01:30N 26°06' W 080°07'0 0.0
2017-Nov-09 01:00N 26°06' W 080°07'0 0.0
2017-Nov-09 00:30N 26°06' W 080°07'0 0.0
2017-Nov-08 23:57N 26°06' W 080°07'0 0.0
2017-Nov-08 23:27N 26°06' W 080°07'0 0.0
2017-Nov-08 22:51N 26°06' W 080°07'0 0.0
2017-Nov-08 22:24N 26°06' W 080°07'0 0.0
2017-Nov-08 21:57N 26°06' W 080°07'0 0.0
2017-Nov-08 21:27N 26°06' W 080°07'0 0.0
2017-Nov-08 20:54N 26°06' W 080°07'0 0.0
2017-Nov-08 20:24N 26°06' W 080°07'0 0.0
2017-Nov-08 19:57N 26°06' W 080°07'0 0.0
2017-Nov-08 19:27N 26°06' W 080°07'0 0.0
2017-Nov-08 18:57N 26°06' W 080°07'0 0.0
2017-Nov-08 18:27N 26°06' W 080°07'0 0.0
2017-Nov-08 17:57N 26°06' W 080°07'0 0.0
2017-Nov-08 17:30N 26°06' W 080°07'0 0.0
2017-Nov-08 17:00N 26°06' W 080°07'0 0.0
2017-Nov-08 16:30N 26°06' W 080°07'0 0.0
2017-Nov-08 16:00N 26°06' W 080°07'0 0.0
2017-Nov-08 15:30N 26°06' W 080°07'0 0.0
2017-Nov-08 15:00N 26°06' W 080°07'0 0.0
2017-Nov-08 14:30N 26°06' W 080°07'0 0.0
2017-Nov-08 14:00N 26°06' W 080°07'0 0.0
2017-Nov-08 13:30N 26°06' W 080°07'0 0.0
2017-Nov-08 13:00N 26°06' W 080°07'0 0.0
2017-Nov-08 12:30N 26°06' W 080°07'0 0.0
2017-Nov-08 12:00N 26°06' W 080°07'0 0.0
2017-Nov-08 11:27N 26°06' W 080°07'0 0.0
2017-Nov-08 11:00N 26°06' W 080°07'0 0.0
2017-Nov-08 10:27N 26°06' W 080°07'0 0.0
2017-Nov-08 09:57N 26°06' W 080°07'0 0.0
2017-Nov-08 09:27N 26°06' W 080°07'0 0.0
2017-Nov-08 08:57N 26°06' W 080°07'0 0.0
2017-Nov-08 08:27N 26°06' W 080°07'0 0.0
2017-Nov-08 07:57N 26°06' W 080°07'0 0.0
2017-Nov-08 07:24N 26°06' W 080°07'0 0.0
2017-Nov-08 06:54N 26°06' W 080°07'0 0.0
2017-Nov-08 06:27N 26°06' W 080°07'0 0.0
2017-Nov-08 05:57N 26°06' W 080°07'0 0.0
2017-Nov-08 05:27N 26°06' W 080°07'0 0.0
2017-Nov-08 04:57N 26°06' W 080°07'0 0.0
2017-Nov-08 04:24N 26°06' W 080°07'0 0.0
2017-Nov-08 04:00N 26°06' W 080°07'0 0.0
2017-Nov-08 03:27N 26°06' W 080°07'0 0.0
2017-Nov-08 03:00N 26°06' W 080°07'0 0.0
2017-Nov-08 02:30N 26°06' W 080°07'0 0.0
2017-Nov-08 02:00N 26°06' W 080°07'0 0.0
2017-Nov-08 01:27N 26°06' W 080°07'0 0.0
2017-Nov-08 01:00N 26°06' W 080°07'0 0.0
2017-Nov-08 00:30N 26°06' W 080°07'0 0.0
2017-Nov-07 23:57N 26°06' W 080°07'0 0.0
2017-Nov-07 23:30N 26°06' W 080°07'0 0.0
2017-Nov-07 23:00N 26°06' W 080°07'0 0.0
2017-Nov-07 22:18N 26°06' W 080°07'0 0.0
2017-Nov-07 22:00N 26°06' W 080°07'0 0.0
2017-Nov-07 21:30N 26°06' W 080°07'0 0.0
2017-Nov-07 21:00N 26°06' W 080°07'0 0.0
2017-Nov-07 20:27N 26°06' W 080°07'0 0.0
2017-Nov-07 19:39N 26°06' W 080°07'0 0.0
2017-Nov-07 19:03N 26°06' W 080°07'  

Dump ship's entire track history